Terminal Aerodrome Forecast
Issued by NWS Huntsville, AL

Home | Current Version | Previous Version | Text Only | Print | Product List | Glossary On
Versions: 1 2 3 4 5 6 7 8 9 10 11 12 13 14 15 16 17 18 19 20 21 22 23 24 25
000
FTUS44 KHUN 040520
TAFMSL
TAF
KMSL 040520Z 0406/0506 20015KT P6SM VCSH BKN015
     FM041100 21015KT P6SM VCSH OVC009
     FM041700 27015G25KT P6SM VCSH OVC015
     FM042000 30015G25KT P6SM VCSH OVC015
      TEMPO 0420/0423 5SM -TSRA BR OVC015CB
     FM042300 36015G25KT 5SM RA BR OVC009=

USA.gov is the U.S. government's official web portal to all federal, state and local government web resources and services.